createdAt,value
2022-10-18T00:05:14.365Z,17.38
2022-10-18T00:10:39.765Z,17.35
2022-10-18T00:16:12.585Z,17.31
2022-10-18T00:21:38.011Z,17.28
2022-10-18T00:27:14.743Z,17.29
2022-10-18T00:32:50.239Z,17.27
2022-10-18T00:38:14.184Z,17.26
2022-10-18T00:44:13.860Z,17.25
2022-10-18T00:49:45.822Z,17.27
2022-10-18T00:55:23.909Z,17.28
2022-10-18T01:00:50.736Z,17.29
2022-10-18T01:06:14.703Z,17.31
2022-10-18T01:12:23.786Z,17.34
2022-10-18T01:17:55.982Z,17.32
2022-10-18T01:23:40.385Z,17.34
2022-10-18T01:29:23.706Z,17.35
2022-10-18T01:34:54.079Z,17.33
2022-10-18T01:40:32.071Z,17.32
2022-10-18T01:45:58.952Z,17.33
2022-10-18T01:51:28.022Z,17.34
2022-10-18T01:57:03.965Z,17.35
2022-10-18T02:02:43.422Z,17.36
2022-10-18T02:08:22.890Z,17.40
2022-10-18T02:14:02.651Z,17.44
2022-10-18T02:19:37.100Z,17.45
2022-10-18T02:25:10.087Z,17.49
2022-10-18T02:30:41.945Z,17.50
2022-10-18T02:36:13.144Z,17.51
2022-10-18T02:41:40.218Z,17.54
2022-10-18T02:47:04.877Z,17.52
2022-10-18T02:52:30.617Z,17.51
2022-10-18T02:58:00.555Z,17.56
2022-10-18T03:03:26.341Z,17.60
2022-10-18T03:09:00.675Z,17.61
2022-10-18T03:14:28.821Z,17.63
2022-10-18T03:20:02.824Z,17.65
2022-10-18T03:25:26.409Z,17.67
2022-10-18T03:30:53.257Z,17.68
2022-10-18T03:36:26.172Z,17.71
2022-10-18T03:41:52.407Z,17.73
2022-10-18T03:47:19.269Z,17.74
2022-10-18T03:52:45.998Z,17.76
2022-10-18T03:58:13.660Z,17.77
2022-10-18T04:03:44.669Z,17.81
2022-10-18T04:09:21.069Z,17.81
2022-10-18T04:14:47.935Z,17.84
2022-10-18T04:20:15.645Z,17.84
2022-10-18T04:25:39.613Z,17.86
2022-10-18T04:31:04.509Z,17.87
2022-10-18T04:36:40.282Z,17.90
2022-10-18T04:42:07.690Z,17.93
2022-10-18T04:47:41.483Z,17.93
2022-10-18T04:53:10.480Z,17.94
2022-10-18T04:58:38.705Z,17.93
2022-10-18T05:10:07.213Z,17.99
2022-10-18T05:15:30.693Z,18.00
2022-10-18T05:21:03.712Z,17.99
2022-10-18T05:26:34.920Z,18.05
2022-10-18T05:32:00.765Z,18.06
2022-10-18T05:37:36.458Z,18.08
2022-10-18T05:43:04.634Z,18.09
2022-10-18T05:48:32.187Z,18.10
2022-10-18T05:54:04.593Z,18.11
2022-10-18T05:59:46.221Z,18.13
2022-10-18T06:05:16.348Z,18.10
2022-10-18T06:10:42.868Z,18.12
2022-10-18T06:16:08.462Z,18.12
2022-10-18T06:21:38.327Z,18.11
2022-10-18T06:32:36.739Z,18.15
2022-10-18T06:38:02.563Z,18.14
2022-10-18T06:43:28.438Z,18.11
2022-10-18T06:48:55.841Z,18.12
2022-10-18T06:54:28.466Z,18.12
2022-10-18T07:00:09.561Z,18.08
2022-10-18T07:05:35.383Z,18.17
2022-10-18T07:11:20.058Z,18.16
2022-10-18T07:16:47.242Z,18.16
2022-10-18T07:22:11.254Z,18.15
2022-10-18T07:27:42.992Z,18.14
2022-10-18T07:33:07.067Z,18.10
2022-10-18T07:38:36.632Z,18.17
2022-10-18T07:44:08.342Z,18.20
2022-10-18T07:49:31.397Z,18.00
2022-10-18T07:54:59.284Z,17.80
2022-10-18T08:00:22.382Z,17.69
2022-10-18T08:05:59.279Z,17.59
2022-10-18T08:11:24.837Z,17.46
2022-10-18T08:16:47.910Z,17.41
2022-10-18T08:22:14.306Z,17.35
2022-10-18T08:27:41.687Z,17.40
2022-10-18T08:33:05.684Z,17.33
2022-10-18T08:38:27.905Z,17.24
2022-10-18T08:44:02.107Z,17.19
2022-10-18T08:49:31.902Z,17.12
2022-10-18T08:55:00.176Z,17.14
2022-10-18T09:00:26.055Z,17.07
2022-10-18T09:05:52.498Z,17.05
2022-10-18T09:11:28.465Z,17.04
2022-10-18T09:17:05.661Z,17.09
2022-10-18T09:22:43.644Z,17.06
2022-10-18T09:28:20.152Z,17.08
2022-10-18T09:33:52.364Z,17.08
2022-10-18T09:39:20.632Z,17.15
2022-10-18T09:44:47.054Z,17.18
2022-10-18T09:50:19.788Z,17.23
2022-10-18T09:56:00.298Z,17.25
2022-10-18T10:01:25.808Z,17.34
2022-10-18T10:06:55.871Z,17.39
2022-10-18T10:12:29.701Z,17.49
2022-10-18T10:17:56.565Z,17.55
2022-10-18T10:23:22.998Z,17.56
2022-10-18T10:28:47.859Z,17.59
2022-10-18T10:34:21.640Z,17.70
2022-10-18T10:39:55.462Z,17.79
2022-10-18T10:45:31.647Z,17.85
2022-10-18T10:50:58.453Z,17.91
2022-10-18T10:56:27.574Z,17.92
2022-10-18T11:01:51.736Z,17.94
2022-10-18T11:07:22.583Z,18.02
2022-10-18T11:12:48.468Z,18.03
2022-10-18T11:18:18.589Z,18.00
2022-10-18T11:23:43.830Z,18.02
2022-10-18T11:29:31.855Z,18.07
2022-10-18T11:35:06.406Z,18.10
2022-10-18T11:40:40.525Z,18.13
2022-10-18T11:46:08.380Z,18.12
2022-10-18T11:51:56.287Z,18.19
2022-10-18T11:57:37.648Z,18.21
2022-10-18T12:03:15.390Z,18.18
2022-10-18T12:08:41.399Z,18.12
2022-10-18T12:14:05.843Z,18.08
2022-10-18T12:19:31.168Z,18.06
2022-10-18T12:24:53.260Z,18.08
2022-10-18T12:30:23.764Z,18.10
2022-10-18T12:35:57.947Z,18.11
2022-10-18T12:41:24.588Z,18.11
2022-10-18T12:46:48.170Z,18.10
2022-10-18T12:51:55.249Z,18.13
2022-10-18T12:56:58.784Z,18.16
2022-10-18T13:02:31.602Z,18.28
2022-10-18T13:07:45.044Z,18.36
2022-10-18T13:13:13.169Z,18.46
2022-10-18T13:18:27.715Z,18.51
2022-10-18T13:23:44.010Z,18.55
2022-10-18T13:28:56.276Z,18.59
2022-10-18T13:34:38.126Z,18.63
2022-10-18T13:39:43.131Z,18.60
2022-10-18T13:44:47.683Z,18.59
2022-10-18T13:50:10.654Z,18.62
2022-10-18T13:55:41.232Z,18.70
2022-10-18T14:00:59.029Z,18.72
2022-10-18T14:06:06.277Z,18.75
2022-10-18T14:11:23.764Z,18.73
2022-10-18T14:16:38.175Z,18.78
2022-10-18T14:21:47.306Z,18.79
2022-10-18T14:27:11.686Z,18.81
2022-10-18T14:32:25.559Z,18.76
2022-10-18T14:37:32.477Z,18.76
2022-10-18T14:42:37.830Z,18.78
2022-10-18T14:47:41.123Z,18.74
2022-10-18T14:52:44.176Z,18.67
2022-10-18T14:57:48.699Z,18.70
2022-10-18T15:02:52.049Z,18.70
2022-10-18T15:07:56.966Z,18.65
2022-10-18T15:13:10.267Z,18.62
2022-10-18T15:18:24.073Z,18.61
2022-10-18T15:23:31.489Z,18.54
2022-10-18T15:28:38.326Z,18.50
2022-10-18T15:33:41.401Z,18.45
2022-10-18T15:38:47.559Z,18.42
2022-10-18T15:44:11.663Z,18.40
2022-10-18T15:49:52.231Z,18.36
2022-10-18T15:54:55.223Z,18.29
2022-10-18T16:00:04.912Z,18.25
2022-10-18T16:05:16.712Z,18.14
2022-10-18T16:10:20.311Z,18.02
2022-10-18T16:15:27.463Z,17.88
2022-10-18T16:20:31.086Z,17.75
2022-10-18T16:25:34.220Z,17.62
2022-10-18T16:30:39.174Z,17.57
2022-10-18T16:35:42.203Z,17.49
2022-10-18T16:40:45.203Z,17.41
2022-10-18T16:45:49.941Z,17.34
2022-10-18T16:50:53.959Z,17.29
2022-10-18T16:56:00.510Z,17.34
2022-10-18T17:01:08.112Z,17.30
2022-10-18T17:06:16.319Z,17.19
2022-10-18T17:11:21.113Z,17.09
2022-10-18T17:21:33.727Z,16.94
2022-10-18T17:26:37.015Z,16.88
2022-10-18T17:31:41.553Z,16.87
2022-10-18T17:36:44.672Z,16.94
2022-10-18T17:41:47.800Z,17.00
2022-10-18T17:46:52.789Z,17.01
2022-10-18T17:51:55.884Z,17.03
2022-10-18T17:56:58.854Z,16.99
2022-10-18T18:02:03.688Z,16.87
2022-10-18T18:07:07.047Z,16.86
2022-10-18T18:12:10.152Z,16.87
2022-10-18T18:17:24.642Z,16.90
2022-10-18T18:22:40.447Z,16.88
2022-10-18T18:27:45.957Z,16.87
2022-10-18T18:32:51.411Z,16.85
2022-10-18T18:37:56.250Z,16.76
2022-10-18T18:43:07.096Z,16.67
2022-10-18T18:48:26.998Z,16.55
2022-10-18T18:53:30.294Z,16.46
2022-10-18T18:58:38.533Z,16.40
2022-10-18T19:03:51.737Z,16.31
2022-10-18T19:09:01.551Z,16.23
2022-10-18T19:14:05.061Z,16.19
2022-10-18T19:19:15.354Z,16.15
2022-10-18T19:24:21.317Z,16.06
2022-10-18T19:29:28.356Z,16.01
2022-10-18T19:34:34.581Z,15.93
2022-10-18T19:39:39.205Z,15.89
2022-10-18T19:44:42.929Z,15.82
2022-10-18T19:49:49.333Z,15.76
2022-10-18T19:54:52.542Z,15.71
2022-10-18T19:59:56.668Z,15.66
2022-10-18T20:05:02.476Z,15.60
2022-10-18T20:10:06.259Z,15.57
2022-10-18T20:15:10.868Z,15.50
2022-10-18T20:20:15.470Z,15.44
2022-10-18T20:25:18.758Z,15.39
2022-10-18T20:30:22.450Z,15.33
2022-10-18T20:35:27.709Z,15.26
2022-10-18T20:40:30.980Z,15.22
2022-10-18T20:45:34.156Z,15.14
2022-10-18T20:50:43.370Z,15.08
2022-10-18T20:55:46.916Z,15.01
2022-10-18T21:00:50.697Z,14.95
2022-10-18T21:05:57.972Z,14.90
2022-10-18T21:11:01.881Z,14.85
2022-10-18T21:16:06.424Z,14.78
2022-10-18T21:26:22.988Z,14.68
2022-10-18T21:31:28.087Z,14.62
2022-10-18T21:36:35.388Z,14.62
2022-10-18T21:41:39.545Z,14.63
2022-10-18T21:46:44.120Z,14.48
2022-10-18T21:51:48.807Z,14.37
2022-10-18T21:56:52.305Z,14.25
2022-10-18T22:01:55.771Z,14.16
2022-10-18T22:07:00.763Z,14.07
2022-10-18T22:12:03.795Z,13.95
2022-10-18T22:17:06.901Z,13.85
2022-10-18T22:22:11.770Z,13.76
2022-10-18T22:27:14.879Z,13.65
2022-10-18T22:32:18.249Z,13.58
2022-10-18T22:37:22.864Z,13.49
2022-10-18T22:42:26.612Z,13.40
2022-10-18T22:47:30.850Z,13.31
2022-10-18T22:52:36.073Z,13.24
2022-10-18T22:57:42.078Z,13.17
2022-10-18T23:02:45.633Z,13.07
2022-10-18T23:07:58.647Z,13.01
2022-10-18T23:13:04.590Z,12.93
2022-10-18T23:18:09.286Z,12.88
2022-10-18T23:23:17.476Z,12.80
2022-10-18T23:28:21.043Z,12.72
2022-10-18T23:33:25.088Z,12.66
2022-10-18T23:38:33.075Z,12.59
2022-10-18T23:43:36.838Z,12.55
2022-10-18T23:48:41.410Z,12.48
2022-10-18T23:53:49.117Z,12.42
2022-10-18T23:58:53.195Z,12.36
